Time;durP1;ratioP1;P1;durP2;ratioP2;P2;SDS_P1;SDS_P2;PMS_P1;PMS_P2;Temp;Humidity;BMP_temperature;BMP_pressure;BME280_temperature;BME280_humidity;BME280_pressure;Samples;Min_cycle;Max_cycle;Signal;HPM_P1;HPM_P2
2023/09/28 00:02:46;;;;;;;6.57;5.05;;;19.10;42.00;;;;;;5056122;28;20381;-74
2023/09/28 00:05:13;;;;;;;7.65;4.75;;;19.10;41.80;;;;;;5055666;28;20386;-73
2023/09/28 00:07:43;;;;;;;7.38;5.28;;;19.10;41.50;;;;;;5054015;28;20382;-74
2023/09/28 00:10:11;;;;;;;7.57;5.23;;;19.10;41.90;;;;;;5054699;28;20389;-72
2023/09/28 00:12:39;;;;;;;7.50;4.80;;;19.00;42.00;;;;;;5055192;28;20396;-73
2023/09/28 00:15:05;;;;;;;5.93;5.33;;;19.00;41.80;;;;;;5054674;28;20393;-73
2023/09/28 00:17:32;;;;;;;11.10;5.30;;;19.10;41.70;;;;;;5054575;28;20492;-73
2023/09/28 00:19:59;;;;;;;5.60;4.70;;;19.10;41.30;;;;;;5053990;28;20450;-73
2023/09/28 00:22:25;;;;;;;6.85;5.60;;;19.10;41.50;;;;;;5054116;28;20389;-73
2023/09/28 00:24:50;;;;;;;8.98;4.90;;;19.10;41.40;;;;;;5035634;28;20787;-74
2023/09/28 00:27:16;;;;;;;7.07;5.40;;;19.10;41.40;;;;;;5034971;28;20377;-73
2023/09/28 00:29:41;;;;;;;8.55;5.40;;;19.00;41.40;;;;;;5052731;28;20424;-73
2023/09/28 00:32:08;;;;;;;11.10;5.75;;;19.10;41.60;;;;;;5052148;28;20828;-72
2023/09/28 00:34:33;;;;;;;6.60;5.00;;;19.00;41.30;;;;;;5052582;28;20408;-72
2023/09/28 00:36:59;;;;;;;5.93;5.10;;;19.00;41.80;;;;;;5052512;28;20789;-72
2023/09/28 00:39:26;;;;;;;5.80;5.00;;;19.00;41.70;;;;;;5053773;28;20401;-73
2023/09/28 00:41:51;;;;;;;5.90;5.30;;;19.00;41.30;;;;;;5053684;28;20391;-72
2023/09/28 00:44:17;;;;;;;6.30;4.63;;;19.10;41.00;;;;;;5053393;28;20940;-73
2023/09/28 00:46:43;;;;;;;10.05;4.60;;;19.10;41.00;;;;;;5053535;28;20750;-72
2023/09/28 00:49:16;;;;;;;8.83;5.67;;;19.10;40.70;;;;;;5053667;28;20393;-73
2023/09/28 00:51:43;;;;;;;6.90;5.00;;;19.20;40.30;;;;;;5052579;28;20389;-72
2023/09/28 00:54:11;;;;;;;7.80;4.83;;;19.30;40.00;;;;;;5053302;28;20385;-72
2023/09/28 00:56:37;;;;;;;7.60;4.93;;;19.20;40.20;;;;;;5054185;28;20893;-73
2023/09/28 00:59:02;;;;;;;7.90;5.00;;;19.10;40.60;;;;;;5054800;28;20393;-73
2023/09/28 01:01:29;;;;;;;6.97;5.50;;;19.10;40.80;;;;;;5051980;28;20395;-74
2023/09/28 01:03:56;;;;;;;9.55;5.40;;;19.00;41.40;;;;;;5053224;28;20388;-74
2023/09/28 01:06:24;;;;;;;6.57;5.00;;;19.00;41.30;;;;;;5052638;28;20385;-73
2023/09/28 01:08:50;;;;;;;8.40;5.50;;;19.00;41.50;;;;;;5053112;28;20792;-73
2023/09/28 01:11:17;;;;;;;10.98;5.35;;;19.00;41.40;;;;;;5051563;28;20382;-73
2023/09/28 01:13:44;;;;;;;8.25;5.20;;;18.90;41.60;;;;;;5052427;28;20382;-73
2023/09/28 01:16:10;;;;;;;8.13;5.22;;;18.80;42.00;;;;;;5052194;28;20789;-73
2023/09/28 01:18:36;;;;;;;11.65;5.70;;;18.80;42.60;;;;;;5051742;28;20386;-73
2023/09/28 01:21:02;;;;;;;6.45;5.20;;;18.70;42.60;;;;;;5051213;28;20401;-73
2023/09/28 01:23:28;;;;;;;8.10;5.15;;;18.80;42.50;;;;;;5051655;28;20386;-73
2023/09/28 01:25:54;;;;;;;7.47;5.20;;;18.90;42.30;;;;;;5051413;28;20380;-73
2023/09/28 01:28:21;;;;;;;8.90;4.90;;;18.80;42.50;;;;;;5051167;28;20442;-73
2023/09/28 01:30:47;;;;;;;6.68;5.30;;;18.70;42.80;;;;;;5051310;28;20874;-73
2023/09/28 01:33:13;;;;;;;5.20;4.70;;;18.70;42.80;;;;;;5051200;28;20544;-73
2023/09/28 01:35:38;;;;;;;7.37;4.80;;;18.70;43.00;;;;;;5051090;28;20436;-73
2023/09/28 01:38:10;;;;;;;6.70;5.07;;;18.70;42.70;;;;;;5051186;28;20389;-72
2023/09/28 01:40:41;;;;;;;6.47;5.20;;;18.70;42.20;;;;;;5050986;28;20406;-73
2023/09/28 01:43:06;;;;;;;6.40;4.93;;;18.80;42.10;;;;;;5051161;28;20874;-72
2023/09/28 01:45:33;;;;;;;8.20;4.97;;;18.70;42.20;;;;;;5051152;28;20556;-72
2023/09/28 01:47:59;;;;;;;7.63;5.35;;;18.80;42.10;;;;;;5051450;28;20899;-72
2023/09/28 01:50:24;;;;;;;8.23;4.93;;;18.80;41.80;;;;;;5050769;28;20389;-73
2023/09/28 01:52:50;;;;;;;7.17;4.83;;;18.80;42.00;;;;;;5050657;28;20377;-73
2023/09/28 01:55:15;;;;;;;7.23;5.30;;;18.80;41.70;;;;;;5051226;28;20385;-74
2023/09/28 01:57:41;;;;;;;8.65;5.43;;;18.90;41.70;;;;;;5051020;28;20381;-73
2023/09/28 02:00:20;;;;;;;8.50;4.87;;;18.80;41.90;;;;;;5050431;28;20413;-73
2023/09/28 02:02:47;;;;;;;6.50;4.88;;;18.70;42.40;;;;;;5050096;28;20381;-73
2023/09/28 02:05:17;;;;;;;7.55;5.32;;;18.70;43.20;;;;;;5050295;28;20400;-73
2023/09/28 02:07:44;;;;;;;9.67;5.83;;;18.70;42.90;;;;;;5032659;28;20412;-72
2023/09/28 02:10:10;;;;;;;10.40;6.50;;;18.70;43.00;;;;;;5050549;28;20388;-71
2023/09/28 02:12:41;;;;;;;6.35;5.75;;;18.60;43.00;;;;;;5050127;28;20777;-72
2023/09/28 02:15:09;;;;;;;9.50;6.65;;;18.60;43.50;;;;;;5050150;28;20466;-71
2023/09/28 02:17:35;;;;;;;11.57;5.93;;;18.50;43.60;;;;;;5050146;28;20425;-71
2023/09/28 02:20:04;;;;;;;7.75;5.60;;;18.40;44.20;;;;;;5049976;28;20413;-71
2023/09/28 02:22:29;;;;;;;6.22;5.60;;;18.40;44.40;;;;;;5049962;28;20381;-71
2023/09/28 02:24:55;;;;;;;7.75;5.47;;;18.40;44.30;;;;;;5050097;28;20397;-71
2023/09/28 02:27:22;;;;;;;6.80;5.20;;;18.40;44.60;;;;;;5050027;28;20378;-72
2023/09/28 02:29:47;;;;;;;6.95;4.75;;;18.40;44.40;;;;;;5050331;28;20419;-72
2023/09/28 02:32:13;;;;;;;6.10;4.43;;;18.30;44.70;;;;;;5052513;28;20914;-72
2023/09/28 02:34:39;;;;;;;7.05;4.80;;;18.30;44.80;;;;;;5054230;28;20388;-72
2023/09/28 02:37:06;;;;;;;9.10;5.55;;;18.20;45.30;;;;;;5054298;28;20734;-72
2023/09/28 02:39:34;;;;;;;10.35;5.20;;;18.30;45.20;;;;;;5054248;28;20484;-72
2023/09/28 02:41:59;;;;;;;10.18;5.40;;;18.20;46.50;;;;;;5054225;28;20435;-72
2023/09/28 02:44:25;;;;;;;6.33;4.90;;;18.10;46.20;;;;;;5053909;28;20381;-72
2023/09/28 02:46:50;;;;;;;7.13;5.20;;;18.10;46.80;;;;;;5053985;28;20377;-72
2023/09/28 02:49:16;;;;;;;5.05;4.55;;;18.10;46.30;;;;;;5054153;28;20369;-71
2023/09/28 02:51:43;;;;;;;8.93;4.87;;;18.10;46.20;;;;;;5053584;28;20385;-71
2023/09/28 02:54:09;;;;;;;7.53;5.03;;;18.10;46.50;;;;;;5053655;28;20415;-71
2023/09/28 02:56:34;;;;;;;7.43;4.70;;;18.10;46.60;;;;;;5053513;28;20389;-71
2023/09/28 02:59:00;;;;;;;9.63;5.40;;;18.10;46.70;;;;;;5053371;28;20409;-71
2023/09/28 03:01:26;;;;;;;8.80;5.20;;;17.90;47.00;;;;;;5053215;28;20408;-71
2023/09/28 03:03:53;;;;;;;7.57;5.18;;;17.80;47.80;;;;;;5053672;28;20388;-72
2023/09/28 03:06:20;;;;;;;7.43;5.20;;;17.80;48.70;;;;;;5053476;28;20442;-72
2023/09/28 03:08:46;;;;;;;6.05;4.82;;;17.70;48.90;;;;;;5053769;28;20382;-72
2023/09/28 03:11:13;;;;;;;8.10;4.77;;;17.70;49.00;;;;;;5053471;28;20381;-72
2023/09/28 03:13:39;;;;;;;6.22;5.20;;;17.60;50.10;;;;;;5053440;28;20385;-72
2023/09/28 03:16:05;;;;;;;6.03;5.28;;;17.60;49.50;;;;;;5053498;28;20790;-72
2023/09/28 03:18:30;;;;;;;6.80;5.50;;;17.70;49.50;;;;;;5053310;28;20413;-73
2023/09/28 03:20:56;;;;;;;6.18;5.50;;;17.80;48.60;;;;;;5055573;22;20471;-75
2023/09/28 03:23:21;;;;;;;10.43;5.70;;;17.80;48.20;;;;;;5033098;28;20394;-75
2023/09/28 03:25:47;;;;;;;9.97;5.73;;;17.70;49.00;;;;;;5032176;28;20457;-75
2023/09/28 03:28:13;;;;;;;8.18;5.90;;;17.60;49.60;;;;;;5033182;28;20377;-75
2023/09/28 03:30:39;;;;;;;10.20;5.60;;;17.70;49.20;;;;;;5043624;28;20386;-75
2023/09/28 03:33:05;;;;;;;5.80;4.75;;;17.60;49.80;;;;;;5053182;28;20385;-75
2023/09/28 03:35:30;;;;;;;9.93;5.40;;;17.50;50.90;;;;;;5052837;28;20448;-75
2023/09/28 03:37:59;;;;;;;9.40;5.32;;;17.40;51.50;;;;;;5053063;28;20382;-75
2023/09/28 03:40:34;;;;;;;7.22;5.28;;;17.30;52.00;;;;;;5052546;28;20897;-74
2023/09/28 03:43:03;;;;;;;8.07;5.50;;;17.20;53.00;;;;;;5052312;28;20388;-74
2023/09/28 03:45:29;;;;;;;8.10;5.43;;;17.40;52.30;;;;;;5053624;28;20389;-76
2023/09/28 03:47:54;;;;;;;7.77;5.90;;;17.40;52.60;;;;;;5053934;28;20381;-75
2023/09/28 03:50:22;;;;;;;10.53;5.50;;;17.30;53.30;;;;;;5053783;28;20385;-77
2023/09/28 03:52:48;;;;;;;11.02;6.40;;;17.20;54.20;;;;;;5052532;28;20389;-75
2023/09/28 03:55:16;;;;;;;9.27;6.20;;;17.10;54.90;;;;;;5052704;28;20417;-74
2023/09/28 03:57:45;;;;;;;8.35;6.22;;;17.00;55.90;;;;;;5052615;28;20761;-74
2023/09/28 04:00:14;;;;;;;9.02;6.00;;;16.90;56.20;;;;;;5052377;28;20397;-77
2023/09/28 04:02:50;;;;;;;7.87;6.83;;;16.80;57.30;;;;;;5052223;28;20877;-75
2023/09/28 04:05:16;;;;;;;8.48;6.70;;;16.80;57.90;;;;;;5052546;28;20397;-75
2023/09/28 04:07:41;;;;;;;10.48;6.30;;;16.70;58.50;;;;;;5052271;28;20397;-76
2023/09/28 04:10:08;;;;;;;9.20;6.23;;;16.70;59.10;;;;;;5052243;28;20738;-76
2023/09/28 04:12:34;;;;;;;9.75;5.80;;;16.70;59.00;;;;;;5052087;28;20394;-75
2023/09/28 04:15:00;;;;;;;7.20;6.47;;;16.60;59.30;;;;;;5052183;28;20889;-76
2023/09/28 04:17:26;;;;;;;8.70;6.43;;;16.60;60.10;;;;;;5051783;28;20738;-76
2023/09/28 04:19:52;;;;;;;8.20;6.40;;;16.60;60.90;;;;;;5051721;28;20815;-74
2023/09/28 04:22:18;;;;;;;9.50;6.78;;;16.50;61.50;;;;;;5051954;28;20382;-75
2023/09/28 04:24:43;;;;;;;11.45;6.75;;;16.40;62.30;;;;;;5052047;28;20444;-75
2023/09/28 04:27:09;;;;;;;11.47;6.80;;;16.40;62.90;;;;;;5050626;28;20476;-75
2023/09/28 04:29:35;;;;;;;9.67;7.10;;;16.40;63.20;;;;;;5051959;28;20520;-75
2023/09/28 04:32:01;;;;;;;9.30;7.10;;;16.50;63.40;;;;;;5052102;28;20400;-74
2023/09/28 04:34:27;;;;;;;13.10;6.53;;;16.40;63.70;;;;;;5051967;28;20389;-76
2023/09/28 04:36:52;;;;;;;11.60;6.80;;;16.40;64.40;;;;;;5051901;28;20412;-74
2023/09/28 04:39:18;;;;;;;9.47;6.80;;;16.40;64.20;;;;;;5051976;28;20488;-76
2023/09/28 04:41:44;;;;;;;11.85;6.97;;;16.40;64.50;;;;;;5052595;28;20854;-74
2023/09/28 04:44:10;;;;;;;9.70;6.80;;;16.30;65.10;;;;;;5052169;28;20384;-75
2023/09/28 04:46:36;;;;;;;10.57;7.03;;;16.30;65.80;;;;;;5050223;28;20396;-75
2023/09/28 04:49:02;;;;;;;11.27;7.03;;;16.40;64.70;;;;;;5051705;28;20382;-78
2023/09/28 04:51:29;;;;;;;11.23;7.63;;;16.30;65.80;;;;;;5050573;28;20393;-77
2023/09/28 04:53:54;;;;;;;11.52;7.43;;;16.20;66.40;;;;;;5051099;28;20440;-77
2023/09/28 04:56:20;;;;;;;9.17;7.30;;;16.20;67.20;;;;;;5051223;28;20378;-76
2023/09/28 04:58:46;;;;;;;9.03;6.73;;;16.30;66.40;;;;;;5049833;28;20786;-75
2023/09/28 05:01:12;;;;;;;9.25;6.63;;;16.30;66.20;;;;;;5050890;28;20404;-75
2023/09/28 05:03:37;;;;;;;12.35;6.95;;;16.30;66.20;;;;;;5051163;28;20409;-75
2023/09/28 05:06:04;;;;;;;13.20;7.63;;;16.40;66.20;;;;;;5051368;28;20465;-75
2023/09/28 05:08:30;;;;;;;13.52;9.50;;;16.30;66.60;;;;;;5051384;28;20382;-76
2023/09/28 05:10:56;;;;;;;9.13;7.28;;;16.30;67.40;;;;;;5050858;28;20384;-76
2023/09/28 05:13:24;;;;;;;9.77;7.10;;;16.20;68.20;;;;;;5051944;28;20457;-76
2023/09/28 05:15:49;;;;;;;9.52;7.10;;;16.10;69.60;;;;;;5051586;28;20386;-76
2023/09/28 05:18:15;;;;;;;12.32;7.47;;;16.10;70.60;;;;;;5050999;28;20451;-77
2023/09/28 05:20:40;;;;;;;9.50;7.60;;;16.10;70.80;;;;;;5049385;28;20416;-77
2023/09/28 05:23:06;;;;;;;10.37;7.60;;;16.10;70.30;;;;;;5050577;28;20891;-74
2023/09/28 05:25:34;;;;;;;9.98;7.43;;;16.10;71.40;;;;;;5050762;28;20484;-76
2023/09/28 05:28:00;;;;;;;7.83;7.03;;;16.10;71.20;;;;;;5050914;28;20382;-75
2023/09/28 05:30:26;;;;;;;10.75;7.70;;;16.10;71.60;;;;;;5050526;28;20400;-76
2023/09/28 05:32:51;;;;;;;13.73;7.70;;;16.10;71.40;;;;;;5050778;28;20389;-73
2023/09/28 05:35:17;;;;;;;10.30;8.30;;;16.00;72.10;;;;;;5050526;28;20410;-75
2023/09/28 05:37:43;;;;;;;11.70;8.40;;;16.00;73.00;;;;;;5050313;28;20384;-76
2023/09/28 05:40:09;;;;;;;45.10;29.60;;;15.90;73.70;;;;;;5051067;28;20856;-74
2023/09/28 05:42:35;;;;;;;17.70;11.75;;;16.00;75.10;;;;;;5049967;28;20420;-75
2023/09/28 05:45:01;;;;;;;11.07;9.40;;;16.10;74.50;;;;;;5048799;28;20803;-74
2023/09/28 05:47:27;;;;;;;11.27;8.20;;;16.10;73.40;;;;;;5049963;28;20392;-75
2023/09/28 05:49:53;;;;;;;10.40;9.07;;;16.20;72.40;;;;;;5050647;28;20801;-74
2023/09/28 05:52:19;;;;;;;23.00;12.80;;;16.20;72.20;;;;;;5050613;28;20386;-75
2023/09/28 05:54:45;;;;;;;15.95;10.90;;;16.20;72.60;;;;;;5049286;28;20497;-74
2023/09/28 05:57:14;;;;;;;15.25;11.35;;;16.30;72.20;;;;;;5049326;28;20382;-76
2023/09/28 05:59:40;;;;;;;11.68;8.80;;;16.30;72.50;;;;;;5050450;28;20409;-77
2023/09/28 06:02:06;;;;;;;23.08;16.15;;;16.30;71.40;;;;;;5050053;28;20389;-78
2023/09/28 06:04:33;;;;;;;15.30;10.73;;;16.40;72.30;;;;;;5050524;28;20488;-77
2023/09/28 06:06:58;;;;;;;12.13;8.98;;;16.40;71.20;;;;;;5050395;28;20377;-77
2023/09/28 06:09:24;;;;;;;19.63;9.17;;;16.40;71.40;;;;;;5049217;28;20439;-77
2023/09/28 06:11:52;;;;;;;21.40;10.27;;;16.50;71.00;;;;;;5049838;28;20396;-76
2023/09/28 06:14:19;;;;;;;17.27;8.13;;;16.50;70.80;;;;;;5048987;28;20401;-77
2023/09/28 06:16:45;;;;;;;16.25;9.65;;;16.50;70.70;;;;;;5050384;28;20389;-75
2023/09/28 06:19:12;;;;;;;13.80;8.77;;;16.50;71.10;;;;;;5050421;28;20408;-77
2023/09/28 06:21:38;;;;;;;17.38;8.32;;;16.50;71.60;;;;;;5049764;28;20393;-75
2023/09/28 06:24:04;;;;;;;16.77;8.90;;;16.50;71.10;;;;;;5050512;28;20385;-77
2023/09/28 06:26:31;;;;;;;12.20;7.60;;;16.50;71.20;;;;;;5050003;28;20378;-74
2023/09/28 06:28:57;;;;;;;12.52;7.85;;;16.50;71.10;;;;;;5050431;28;20384;-76
2023/09/28 06:31:23;;;;;;;11.20;8.00;;;16.50;70.70;;;;;;5049719;28;20464;-76
2023/09/28 06:33:48;;;;;;;15.13;8.90;;;16.60;71.00;;;;;;5050026;28;20522;-77
2023/09/28 06:36:15;;;;;;;21.95;8.45;;;16.60;71.10;;;;;;5050200;28;20379;-77
2023/09/28 06:38:41;;;;;;;12.95;8.30;;;16.70;71.20;;;;;;5049891;28;20392;-75
2023/09/28 06:41:06;;;;;;;12.38;8.30;;;16.70;70.30;;;;;;5048432;28;20544;-76
2023/09/28 06:43:32;;;;;;;13.70;7.97;;;16.90;68.80;;;;;;5050628;28;20385;-75
2023/09/28 06:45:58;;;;;;;16.87;8.37;;;16.90;68.80;;;;;;5049762;28;20451;-75
2023/09/28 06:48:27;;;;;;;13.53;9.00;;;16.90;68.40;;;;;;5049874;28;20862;-76
2023/09/28 06:50:56;;;;;;;13.13;9.00;;;17.00;68.50;;;;;;5049844;28;20405;-75
2023/09/28 06:53:23;;;;;;;13.35;9.02;;;17.00;68.50;;;;;;5050311;28;20385;-75
2023/09/28 06:55:49;;;;;;;18.40;8.80;;;17.10;67.40;;;;;;5048846;28;20484;-75
2023/09/28 06:58:15;;;;;;;17.92;9.15;;;17.30;67.40;;;;;;5050016;28;20431;-76
2023/09/28 07:00:41;;;;;;;16.30;8.23;;;17.30;66.70;;;;;;5050275;28;20401;-75
2023/09/28 07:03:08;;;;;;;12.02;8.18;;;17.40;64.70;;;;;;5048959;28;20796;-75
2023/09/28 07:05:34;;;;;;;14.33;8.20;;;17.40;64.10;;;;;;5050553;28;20381;-76
2023/09/28 07:08:00;;;;;;;15.38;8.30;;;17.50;63.20;;;;;;5050751;28;20435;-75
2023/09/28 07:10:26;;;;;;;15.15;8.68;;;17.60;62.30;;;;;;5050119;28;20785;-76
2023/09/28 07:12:52;;;;;;;11.63;8.10;;;17.60;61.70;;;;;;5049676;28;20396;-77
2023/09/28 07:15:18;;;;;;;15.60;8.50;;;17.70;61.20;;;;;;5049773;28;20368;-77
2023/09/28 07:17:44;;;;;;;14.32;8.48;;;17.80;61.00;;;;;;5050098;28;20396;-76
2023/09/28 07:20:14;;;;;;;15.63;8.40;;;17.80;60.10;;;;;;5051680;28;20891;-76
2023/09/28 07:22:40;;;;;;;15.75;8.90;;;17.80;60.20;;;;;;5053009;28;20374;-74
2023/09/28 07:25:06;;;;;;;14.07;7.90;;;17.90;59.90;;;;;;5053080;28;20377;-76
2023/09/28 07:27:32;;;;;;;13.75;8.60;;;17.90;59.90;;;;;;5052677;28;20485;-76
2023/09/28 07:29:59;;;;;;;16.27;8.88;;;17.90;59.70;;;;;;5051618;28;20884;-75
2023/09/28 07:32:26;;;;;;;15.90;8.77;;;18.10;58.70;;;;;;5053221;28;20389;-76
2023/09/28 07:34:52;;;;;;;13.75;9.02;;;18.20;57.80;;;;;;5053136;28;20910;-75
2023/09/28 07:37:18;;;;;;;17.60;8.80;;;18.10;58.70;;;;;;5053345;28;20389;-74
2023/09/28 07:39:44;;;;;;;14.45;8.50;;;18.10;58.60;;;;;;5053003;28;20478;-76
2023/09/28 07:42:09;;;;;;;16.25;8.75;;;18.20;58.10;;;;;;5053432;28;20381;-76
2023/09/28 07:44:35;;;;;;;14.93;7.95;;;18.40;57.60;;;;;;5052795;28;20392;-75
2023/09/28 07:47:01;;;;;;;17.00;8.30;;;18.60;56.30;;;;;;5051918;28;20386;-75
2023/09/28 07:49:27;;;;;;;14.43;8.27;;;18.80;55.10;;;;;;5051729;28;20389;-75
2023/09/28 07:51:55;;;;;;;17.30;8.90;;;19.00;54.00;;;;;;5052469;28;20392;-77
2023/09/28 07:54:20;;;;;;;21.00;9.10;;;19.30;52.10;;;;;;5052749;28;20874;-76
2023/09/28 07:56:46;;;;;;;13.73;8.90;;;19.40;50.80;;;;;;5053178;28;20397;-76
2023/09/28 07:59:12;;;;;;;18.83;8.95;;;19.70;49.00;;;;;;5052937;28;20405;-74
2023/09/28 08:01:38;;;;;;;24.00;8.57;;;19.80;48.40;;;;;;5052310;28;20740;-74
2023/09/28 08:04:05;;;;;;;15.85;7.95;;;19.80;49.00;;;;;;5052782;28;20378;-75
2023/09/28 08:06:32;;;;;;;14.93;7.28;;;19.90;48.60;;;;;;5056089;28;20413;-75
2023/09/28 08:08:58;;;;;;;17.08;7.60;;;20.10;48.30;;;;;;5052843;28;20787;-76
2023/09/28 08:11:23;;;;;;;13.83;7.20;;;20.20;47.60;;;;;;5050933;28;20468;-76
2023/09/28 08:13:49;;;;;;;16.13;6.63;;;20.20;47.80;;;;;;5052908;28;20385;-75
2023/09/28 08:16:15;;;;;;;17.13;7.40;;;20.40;45.10;;;;;;5053261;28;20884;-76
2023/09/28 08:18:41;;;;;;;17.47;6.83;;;20.50;45.60;;;;;;5053304;28;20385;-77
2023/09/28 08:21:06;;;;;;;17.30;6.95;;;20.70;44.00;;;;;;5053335;28;20423;-75
2023/09/28 08:23:32;;;;;;;14.40;6.00;;;20.80;43.30;;;;;;5053147;28;20435;-75
2023/09/28 08:25:57;;;;;;;11.85;6.00;;;20.80;43.10;;;;;;5053537;28;20381;-77
2023/09/28 08:28:24;;;;;;;11.70;5.93;;;21.10;41.90;;;;;;5052085;28;20393;-77
2023/09/28 08:30:49;;;;;;;12.02;5.63;;;21.30;41.20;;;;;;5052291;28;20390;-77
2023/09/28 08:33:16;;;;;;;10.30;5.43;;;21.60;39.90;;;;;;5058319;28;20393;-76
2023/09/28 08:35:47;;;;;;;15.20;6.13;;;21.70;39.20;;;;;;5057596;28;20417;-76
2023/09/28 08:38:13;;;;;;;11.55;5.60;;;21.70;39.00;;;;;;5057083;28;20446;-77
2023/09/28 08:40:40;;;;;;;12.50;5.40;;;21.70;38.90;;;;;;5060491;28;20409;-77
2023/09/28 08:43:11;;;;;;;16.65;5.88;;;21.60;38.60;;;;;;5057472;28;20393;-77
2023/09/28 08:45:40;;;;;;;14.98;5.90;;;21.50;39.30;;;;;;5058941;28;20386;-77
2023/09/28 08:48:11;;;;;;;16.23;5.55;;;21.10;40.60;;;;;;5058483;28;20413;-76
2023/09/28 08:50:39;;;;;;;18.17;6.00;;;21.00;41.30;;;;;;5058708;28;20444;-76
2023/09/28 08:53:05;;;;;;;12.95;5.57;;;21.10;40.30;;;;;;5055621;28;20385;-77
2023/09/28 08:55:33;;;;;;;12.60;5.32;;;21.40;38.10;;;;;;5056145;28;20385;-77
2023/09/28 08:57:59;;;;;;;12.47;5.40;;;21.70;37.50;;;;;;5055749;28;20460;-77
2023/09/28 09:00:26;;;;;;;19.50;5.47;;;21.80;35.90;;;;;;5053853;28;20463;-77
2023/09/28 09:02:52;;;;;;;14.20;5.15;;;21.90;35.50;;;;;;5052617;28;20381;-76
2023/09/28 09:05:18;;;;;;;14.48;5.30;;;22.00;35.80;;;;;;5052258;28;20412;-77
2023/09/28 09:07:44;;;;;;;10.00;5.15;;;22.10;35.30;;;;;;5053817;28;20755;-77
2023/09/28 09:10:17;;;;;;;16.73;5.15;;;22.10;34.50;;;;;;5052246;28;20421;-77
2023/09/28 09:12:43;;;;;;;13.30;5.35;;;22.20;34.40;;;;;;5051270;28;20499;-78
2023/09/28 09:15:09;;;;;;;13.90;5.37;;;22.30;34.20;;;;;;5052634;28;20393;-77
2023/09/28 09:17:36;;;;;;;19.95;6.28;;;22.50;34.70;;;;;;5051283;28;20393;-77
2023/09/28 09:20:05;;;;;;;12.68;5.47;;;22.70;33.70;;;;;;5052378;28;20436;-77
2023/09/28 09:22:30;;;;;;;14.82;5.00;;;22.90;32.60;;;;;;5054138;28;20397;-76
2023/09/28 09:24:57;;;;;;;11.30;4.97;;;22.90;32.60;;;;;;5057650;28;20381;-78
2023/09/28 09:27:27;;;;;;;11.70;4.63;;;23.00;31.70;;;;;;5057259;28;20471;-77
2023/09/28 09:29:57;;;;;;;16.25;5.07;;;23.20;32.00;;;;;;5054828;28;20389;-77
2023/09/28 09:32:27;;;;;;;13.70;4.50;;;23.40;30.70;;;;;;5054779;28;20385;-76
2023/09/28 09:34:53;;;;;;;10.23;4.78;;;23.50;30.00;;;;;;5053771;28;20396;-77
2023/09/28 09:37:19;;;;;;;12.32;4.70;;;23.40;30.20;;;;;;5052908;28;20393;-75
2023/09/28 09:39:45;;;;;;;12.65;4.40;;;23.30;30.50;;;;;;5052597;28;20984;-76
2023/09/28 09:42:11;;;;;;;18.00;5.40;;;;;;;;;;5056105;28;20373;-77
2023/09/28 09:44:37;;;;;;;16.23;5.50;;;22.90;32.10;;;;;;5052406;28;20853;-76
2023/09/28 09:47:03;;;;;;;19.90;5.05;;;22.70;32.80;;;;;;5053172;28;20393;-77
2023/09/28 09:49:29;;;;;;;12.50;5.07;;;22.60;32.70;;;;;;5054481;28;20385;-78
2023/09/28 09:51:59;;;;;;;16.73;5.00;;;22.70;32.90;;;;;;5055859;28;20384;-78
2023/09/28 09:54:24;;;;;;;16.27;6.00;;;22.80;32.20;;;;;;5054350;28;20463;-78
2023/09/28 09:56:51;;;;;;;12.95;5.15;;;23.10;31.70;;;;;;5054497;28;20390;-78
2023/09/28 09:59:20;;;;;;;14.48;5.80;;;23.00;31.50;;;;;;5054583;28;20754;-76
2023/09/28 10:01:50;;;;;;;13.45;4.72;;;22.90;32.20;;;;;;5053572;28;20716;-77
2023/09/28 10:04:18;;;;;;;17.00;5.30;;;22.70;32.90;;;;;;5054546;28;20381;-78
2023/09/28 10:06:48;;;;;;;13.77;5.68;;;22.60;33.30;;;;;;5056383;28;20389;-79
2023/09/28 10:09:17;;;;;;;13.77;4.97;;;22.70;33.20;;;;;;5055810;28;20408;-77
2023/09/28 10:11:46;;;;;;;11.85;5.25;;;22.80;32.50;;;;;;5056984;28;20397;-79
2023/09/28 10:14:14;;;;;;;11.10;5.57;;;22.70;32.90;;;;;;5054375;28;20923;-76
2023/09/28 10:16:41;;;;;;;14.93;5.40;;;22.80;32.60;;;;;;5053372;28;20415;-76
2023/09/28 10:19:09;;;;;;;15.57;5.40;;;22.80;32.10;;;;;;5053198;28;20380;-76
2023/09/28 10:21:39;;;;;;;18.00;5.30;;;22.90;33.40;;;;;;5052619;28;20401;-77
2023/09/28 10:24:09;;;;;;;10.63;4.70;;;22.90;31.50;;;;;;5055324;28;20424;-76
2023/09/28 10:26:35;;;;;;;11.20;4.80;;;22.90;31.60;;;;;;5055263;28;20382;-77
2023/09/28 10:29:05;;;;;;;14.90;5.10;;;22.90;32.30;;;;;;5053478;28;20400;-77
2023/09/28 10:31:36;;;;;;;16.10;5.80;;;23.10;31.00;;;;;;5055321;28;20473;-77
2023/09/28 10:34:04;;;;;;;14.68;5.50;;;23.40;30.60;;;;;;5055850;28;20388;-75
2023/09/28 10:36:31;;;;;;;17.77;5.40;;;23.60;29.90;;;;;;5055115;28;20411;-77
2023/09/28 10:39:11;;;;;;;14.25;4.80;;;23.90;29.00;;;;;;5055015;28;20776;-76
2023/09/28 10:41:37;;;;;;;13.48;4.75;;;24.20;27.90;;;;;;5054308;28;20520;-76
2023/09/28 10:44:19;;;;;;;13.15;5.05;;;24.20;27.00;;;;;;5054621;28;20419;-77
2023/09/28 10:46:49;;;;;;;14.43;5.18;;;24.10;27.50;;;;;;5053503;28;20950;-76
2023/09/28 10:49:26;;;;;;;8.80;4.47;;;24.00;27.90;;;;;;5055016;28;20404;-77
2023/09/28 10:51:52;;;;;;;23.07;5.67;;;23.80;28.20;;;;;;5056763;28;20389;-76
2023/09/28 10:54:19;;;;;;;15.80;5.20;;;23.90;27.90;;;;;;5062217;28;20381;-77
2023/09/28 10:56:48;;;;;;;12.63;5.15;;;23.80;28.40;;;;;;5058036;28;20389;-78
2023/09/28 10:59:15;;;;;;;13.85;5.38;;;23.70;28.50;;;;;;5063600;28;20494;-76
2023/09/28 11:01:41;;;;;;;15.80;5.40;;;23.80;28.50;;;;;;5066482;28;20381;-76
2023/09/28 11:04:07;;;;;;;14.60;5.80;;;23.80;28.50;;;;;;5064179;28;20431;-76
2023/09/28 11:06:33;;;;;;;13.25;5.50;;;23.70;28.50;;;;;;5064877;28;20385;-76
2023/09/28 11:09:03;;;;;;;19.17;5.65;;;23.60;29.00;;;;;;5068653;28;20381;-77
2023/09/28 11:11:29;;;;;;;10.07;4.70;;;23.60;29.60;;;;;;5067212;28;20384;-78
2023/09/28 11:13:57;;;;;;;9.95;5.10;;;23.80;28.80;;;;;;5064771;28;20474;-77
2023/09/28 11:16:24;;;;;;;10.63;4.68;;;23.70;28.10;;;;;;5061076;28;20381;-76
2023/09/28 11:18:49;;;;;;;14.73;5.20;;;23.70;28.20;;;;;;5059285;28;20417;-76
2023/09/28 11:21:15;;;;;;;13.10;5.03;;;23.70;28.40;;;;;;5060724;28;20474;-77
2023/09/28 11:23:41;;;;;;;15.38;5.10;;;23.70;28.40;;;;;;5056965;28;20480;-76
2023/09/28 11:26:11;;;;;;;15.27;5.30;;;23.70;28.40;;;;;;5057090;28;20381;-77
2023/09/28 11:28:38;;;;;;;16.23;5.30;;;23.80;28.30;;;;;;5056455;28;20897;-76
2023/09/28 11:31:14;;;;;;;14.82;5.90;;;24.00;28.40;;;;;;5055070;28;20469;-75
2023/09/28 11:33:42;;;;;;;17.63;5.30;;;24.20;27.40;;;;;;5056110;28;20373;-76
2023/09/28 11:36:12;;;;;;;14.65;5.38;;;24.40;27.00;;;;;;5060289;28;20385;-76
2023/09/28 11:38:39;;;;;;;18.77;5.05;;;24.40;26.60;;;;;;5063868;28;20389;-78
2023/09/28 11:41:05;;;;;;;11.88;4.60;;;24.40;25.70;;;;;;5065037;28;20451;-77
2023/09/28 11:43:53;;;;;;;13.98;5.00;;;24.70;26.10;;;;;;5066097;28;20513;-77
2023/09/28 11:46:31;;;;;;;11.35;4.40;;;24.70;24.80;;;;;;5062603;28;20413;-76
2023/09/28 11:49:04;;;;;;;12.88;4.15;;;24.70;24.60;;;;;;5061681;28;20389;-77
2023/09/28 11:51:34;;;;;;;11.25;4.35;;;24.60;24.40;;;;;;5059873;28;20389;-77
2023/09/28 11:54:07;;;;;;;11.02;4.50;;;24.70;24.50;;;;;;5060553;28;20719;-78
2023/09/28 11:56:33;;;;;;;16.52;4.65;;;24.60;24.60;;;;;;5056624;28;20469;-77
2023/09/28 11:58:58;;;;;;;12.32;4.40;;;24.50;24.70;;;;;;5056668;28;20385;-76
2023/09/28 12:01:24;;;;;;;11.10;4.50;;;24.30;24.90;;;;;;5055267;28;20447;-76
2023/09/28 12:03:50;;;;;;;16.20;4.80;;;24.40;25.60;;;;;;5055025;28;20385;-76
2023/09/28 12:06:20;;;;;;;11.73;4.20;;;24.40;25.30;;;;;;5056163;28;20447;-77
2023/09/28 12:08:46;;;;;;;12.50;4.50;;;24.80;24.50;;;;;;5053543;28;20393;-76
2023/09/28 12:11:12;;;;;;;15.90;4.72;;;25.00;23.20;;;;;;5055697;28;20889;-76
2023/09/28 12:13:38;;;;;;;14.27;4.20;;;25.10;23.70;;;;;;5058801;28;20394;-77
2023/09/28 12:16:05;;;;;;;9.55;3.60;;;25.30;22.80;;;;;;5060207;28;20400;-77
2023/09/28 12:18:31;;;;;;;12.38;4.20;;;25.40;22.40;;;;;;5063194;28;20389;-76
2023/09/28 12:20:56;;;;;;;13.77;4.55;;;25.30;22.10;;;;;;5059856;28;20437;-76
2023/09/28 12:23:22;;;;;;;15.10;4.90;;;25.00;23.00;;;;;;5061369;28;20469;-77
2023/09/28 12:25:48;;;;;;;12.63;4.15;;;24.90;23.60;;;;;;5060605;28;20384;-77
2023/09/28 12:28:14;;;;;;;14.00;4.20;;;24.70;23.90;;;;;;5059353;28;20443;-77
2023/09/28 12:30:39;;;;;;;13.98;3.85;;;24.70;24.30;;;;;;5068128;28;20382;-76
2023/09/28 12:33:08;;;;;;;17.63;4.78;;;24.60;24.50;;;;;;5071740;28;20373;-76
2023/09/28 12:35:34;;;;;;;15.00;4.70;;;24.50;24.90;;;;;;5064429;28;20389;-76
2023/09/28 12:38:03;;;;;;;13.63;4.53;;;24.50;25.30;;;;;;5064038;28;20750;-77
2023/09/28 12:40:29;;;;;;;11.20;3.93;;;24.60;24.50;;;;;;5064065;28;20400;-75